Time;durP1;ratioP1;P1;durP2;ratioP2;P2;SDS_P1;SDS_P2;PMS_P1;PMS_P2;Temp;Humidity;BMP_temperature;BMP_pressure;BME280_temperature;BME280_humidity;BME280_pressure;Samples;Min_cycle;Max_cycle;Signal;HPM_P1;HPM_P2
2021/04/27 00:00:58;;;;;;;6.32;2.05;;;;;;;7.71;47.26;95867.34;4927563;29;20439;-71
2021/04/27 00:03:25;;;;;;;6.40;2.30;;;;;;;7.61;47.90;95871.44;4930148;29;20258;-73
2021/04/27 00:05:52;;;;;;;6.20;2.17;;;;;;;7.62;47.47;95867.94;4923646;29;20200;-70
2021/04/27 00:08:19;;;;;;;2.97;1.63;;;;;;;7.51;47.43;95858.22;4929880;29;20172;-71
2021/04/27 00:10:46;;;;;;;5.95;2.05;;;;;;;7.53;48.20;95853.81;4922047;29;20218;-70
2021/04/27 00:13:14;;;;;;;6.57;1.90;;;;;;;7.54;47.39;95854.63;4924557;28;20705;-71
2021/04/27 00:15:41;;;;;;;6.65;1.35;;;;;;;7.52;47.94;95856.50;4933044;29;20473;-74
2021/04/27 00:18:08;;;;;;;3.80;1.60;;;;;;;7.52;47.38;95851.31;4929965;29;20635;-70
2021/04/27 00:20:35;;;;;;;6.40;1.83;;;;;;;7.54;47.41;95849.44;4931443;29;20451;-71
2021/04/27 00:23:03;;;;;;;3.63;1.57;;;;;;;7.56;48.00;95847.59;4932281;29;20567;-70
2021/04/27 00:25:30;;;;;;;4.40;1.90;;;;;;;7.50;47.63;95841.03;4928207;28;20467;-71
2021/04/27 00:27:58;;;;;;;4.85;2.00;;;;;;;7.51;47.67;95849.66;4924970;29;20478;-71
2021/04/27 00:30:27;;;;;;;5.65;1.50;;;;;;;7.41;47.77;95841.63;4904231;29;20303;-71
2021/04/27 00:32:55;;;;;;;5.43;1.50;;;;;;;7.34;48.32;95836.91;4927389;29;20192;-71
2021/04/27 00:35:23;;;;;;;12.45;2.25;;;;;;;7.34;48.00;95829.97;4925658;28;20230;-71
2021/04/27 00:37:50;;;;;;;5.43;2.05;;;;;;;7.36;48.54;95830.69;4918982;29;20573;-70
2021/04/27 00:40:18;;;;;;;3.13;2.13;;;;;;;7.35;48.44;95833.41;4925587;29;20220;-72
2021/04/27 00:42:47;;;;;;;2.20;1.40;;;;;;;7.35;48.89;95831.63;4932544;29;20215;-69
2021/04/27 00:45:17;;;;;;;9.18;1.60;;;;;;;7.35;48.70;95829.03;4939331;29;20777;-71
2021/04/27 00:47:44;;;;;;;3.70;1.70;;;;;;;7.28;48.20;95832.13;4929801;29;20216;-70
2021/04/27 00:50:19;;;;;;;6.13;1.45;;;;;;;7.34;48.83;95818.78;4925963;29;20254;-69
2021/04/27 00:52:47;;;;;;;8.70;1.98;;;;;;;7.27;48.75;95804.56;4922067;29;20278;-71
2021/04/27 00:55:15;;;;;;;2.90;1.70;;;;;;;7.33;48.66;95820.56;4919957;28;20690;-71
2021/04/27 00:57:44;;;;;;;3.40;1.73;;;;;;;7.27;48.97;95810.56;4921941;29;20675;-71
2021/04/27 01:00:13;;;;;;;3.75;1.80;;;;;;;7.20;49.26;95819.63;4920893;29;20231;-71
2021/04/27 01:02:40;;;;;;;10.05;2.17;;;;;;;7.15;49.50;95813.09;4928699;29;20216;-70
2021/04/27 01:05:12;;;;;;;4.43;1.60;;;;;;;7.10;49.77;95818.53;4929809;29;20223;-72
2021/04/27 01:07:47;;;;;;;5.55;1.80;;;;;;;7.17;50.24;95816.41;4922213;29;20258;-72
2021/04/27 01:10:20;;;;;;;4.55;2.08;;;;;;;7.04;50.18;95818.91;4924608;29;20250;-70
2021/04/27 01:12:54;;;;;;;2.55;1.65;;;;;;;6.98;49.84;95821.03;4924912;29;20211;-71
2021/04/27 01:15:24;;;;;;;5.13;2.17;;;;;;;6.82;50.96;95817.69;4924716;29;20744;-71
2021/04/27 01:17:52;;;;;;;3.55;2.00;;;;;;;6.84;50.57;95815.88;4917977;29;20192;-74
2021/04/27 01:20:27;;;;;;;11.15;1.98;;;;;;;6.76;50.95;95810.31;4932063;28;20429;-71
2021/04/27 01:23:12;;;;;;;2.83;1.45;;;;;;;6.84;51.35;95811.50;4915103;29;20202;-71
2021/04/27 01:25:46;;;;;;;8.07;1.70;;;;;;;6.64;51.22;95804.09;4918593;29;20555;-71
2021/04/27 01:28:14;;;;;;;2.25;1.67;;;;;;;6.62;50.73;95808.53;4920887;29;20220;-73
2021/04/27 01:30:43;;;;;;;3.97;1.83;;;;;;;6.61;50.97;95801.72;4918583;29;20274;-70
2021/04/27 01:33:13;;;;;;;2.72;1.35;;;;;;;6.66;51.46;95809.19;4918879;29;20203;-71
2021/04/27 01:35:42;;;;;;;4.63;1.60;;;;;;;6.59;51.35;95805.31;4925453;29;20585;-70
2021/04/27 01:38:10;;;;;;;7.32;1.77;;;;;;;6.60;51.65;95806.97;4927055;29;20188;-71
2021/04/27 01:40:37;;;;;;;4.10;1.70;;;;;;;6.60;51.23;95806.97;4922974;29;20227;-72
2021/04/27 01:43:04;;;;;;;6.65;1.70;;;;;;;6.58;51.34;95806.22;4902378;29;20521;-72
2021/04/27 01:45:33;;;;;;;6.82;2.00;;;;;;;6.50;51.68;95806.69;4908253;29;20232;-71
2021/04/27 01:48:01;;;;;;;6.68;1.83;;;;;;;6.50;52.11;95811.03;4923636;29;20579;-70
2021/04/27 01:50:29;;;;;;;3.67;1.80;;;;;;;6.52;51.76;95804.00;4923541;29;20233;-71
2021/04/27 01:52:56;;;;;;;7.47;1.65;;;;;;;6.49;51.18;95788.69;4923270;29;20258;-70
2021/04/27 01:55:24;;;;;;;3.42;1.95;;;;;;;6.50;51.52;95796.38;4919747;28;20610;-70
2021/04/27 01:57:51;;;;;;;6.70;1.70;;;;;;;6.53;51.65;95796.16;4926340;29;20196;-71
2021/04/27 02:00:22;;;;;;;4.28;1.85;;;;;;;6.51;51.82;95787.69;4925726;29;20223;-72
2021/04/27 02:02:50;;;;;;;9.43;2.13;;;;;;;6.48;51.78;95781.88;4921334;28;20231;-73
2021/04/27 02:05:18;;;;;;;4.22;2.17;;;;;;;6.51;51.81;95786.84;4937860;28;20218;-72
2021/04/27 02:07:45;;;;;;;9.00;1.98;;;;;;;6.43;52.06;95778.72;4940187;28;20556;-72
2021/04/27 02:10:13;;;;;;;4.55;2.05;;;;;;;6.39;52.08;95783.22;4941976;28;20568;-73
2021/04/27 02:12:45;;;;;;;6.65;2.00;;;;;;;6.35;52.41;95780.91;4942040;28;20541;-71
2021/04/27 02:15:15;;;;;;;6.55;2.15;;;;;;;6.28;52.72;95774.44;4937987;28;20262;-72
2021/04/27 02:17:46;;;;;;;4.97;1.88;;;;;;;6.27;52.08;95770.19;4948843;28;20839;-72
2021/04/27 02:20:15;;;;;;;3.53;1.98;;;;;;;6.35;52.39;95771.38;4941042;28;20250;-71
2021/04/27 02:22:47;;;;;;;2.60;1.52;;;;;;;6.31;52.04;95775.09;4942777;28;20942;-76
2021/04/27 02:25:16;;;;;;;4.90;1.90;;;;;;;6.33;52.33;95772.44;4936929;28;20709;-70
2021/04/27 02:27:44;;;;;;;7.97;1.92;;;;;;;6.27;52.64;95768.44;4947745;28;20210;-71
2021/04/27 02:30:15;;;;;;;5.80;3.22;;;;;;;6.31;52.63;95771.66;4937250;28;20741;-70
2021/04/27 02:32:44;;;;;;;5.50;1.63;;;;;;;6.31;52.47;95779.41;4937100;28;20205;-70
2021/04/27 02:35:13;;;;;;;5.88;2.17;;;;;;;6.21;53.77;95773.13;4941766;28;20227;-71
2021/04/27 02:37:42;;;;;;;3.00;1.70;;;;;;;6.09;55.10;95776.41;4937808;28;20653;-70
2021/04/27 02:40:11;;;;;;;8.07;2.58;;;;;;;5.87;55.35;95775.97;4942690;28;20215;-71
2021/04/27 02:42:38;;;;;;;4.78;2.30;;;;;;;5.84;55.24;95765.84;4945776;28;20238;-71
2021/04/27 02:45:09;;;;;;;3.00;1.70;;;;;;;5.89;55.80;95758.69;4942490;28;20347;-71
2021/04/27 02:47:35;;;;;;;4.50;1.88;;;;;;;5.96;54.73;95767.72;4936986;28;20662;-70
2021/04/27 02:50:04;;;;;;;4.88;1.80;;;;;;;5.99;54.47;95760.66;4937803;28;20739;-72
2021/04/27 02:52:31;;;;;;;5.07;1.98;;;;;;;5.98;54.28;95756.38;4946443;28;20291;-70
2021/04/27 02:54:58;;;;;;;6.07;3.05;;;;;;;5.97;54.75;95759.88;4936310;28;20725;-71
2021/04/27 02:57:25;;;;;;;3.97;1.73;;;;;;;6.02;54.00;95757.03;4938125;28;20199;-71
2021/04/27 02:59:52;;;;;;;4.18;1.70;;;;;;;6.00;54.30;95764.03;4941629;28;20673;-70
2021/04/27 03:02:19;;;;;;;7.22;2.40;;;;;;;5.98;54.50;95750.41;4943087;28;20254;-71
2021/04/27 03:04:46;;;;;;;4.75;1.60;;;;;;;6.01;54.57;95748.47;4943747;28;20560;-71
2021/04/27 03:07:13;;;;;;;4.80;2.00;;;;;;;5.95;54.30;95750.56;4948756;28;20211;-72
2021/04/27 03:09:40;;;;;;;6.22;2.05;;;;;;;5.99;54.52;95757.22;4942466;28;20552;-71
2021/04/27 03:12:08;;;;;;;9.18;1.83;;;;;;;5.97;54.03;95753.91;4947913;28;20600;-71
2021/04/27 03:14:35;;;;;;;3.70;1.80;;;;;;;5.91;54.34;95754.25;4942328;28;20698;-71
2021/04/27 03:17:02;;;;;;;4.85;2.50;;;;;;;5.80;56.58;95757.44;4944536;28;20555;-72
2021/04/27 03:19:29;;;;;;;7.45;3.53;;;;;;;5.55;58.49;95756.28;4946053;28;20238;-72
2021/04/27 03:21:56;;;;;;;16.25;3.63;;;;;;;5.41;58.76;95727.84;4948857;28;20199;-70
2021/04/27 03:24:23;;;;;;;7.43;2.63;;;;;;;5.40;58.89;95736.50;4946649;28;20662;-70
2021/04/27 03:26:50;;;;;;;4.28;2.75;;;;;;;5.32;59.18;95752.41;4950403;28;20631;-75
2021/04/27 03:29:18;;;;;;;7.78;3.20;;;;;;;5.27;59.75;95751.84;4945612;28;20629;-71
2021/04/27 03:31:45;;;;;;;7.55;2.85;;;;;;;5.18;59.68;95751.50;4944270;28;20738;-72
2021/04/27 03:34:12;;;;;;;6.43;2.75;;;;;;;5.06;60.19;95758.16;4951587;28;20266;-71
2021/04/27 03:36:39;;;;;;;10.82;3.50;;;;;;;5.00;59.95;95753.31;4950580;28;20219;-73
2021/04/27 03:39:06;;;;;;;5.82;2.55;;;;;;;4.98;59.93;95754.31;4948420;28;20546;-71
2021/04/27 03:41:33;;;;;;;5.70;2.00;;;;;;;4.98;59.88;95754.31;4948620;28;20599;-72
2021/04/27 03:44:00;;;;;;;5.10;2.60;;;;;;;5.03;59.96;95748.00;4928241;28;20229;-72
2021/04/27 03:46:28;;;;;;;4.68;2.53;;;;;;;5.05;60.32;95750.50;4945482;28;20206;-72
2021/04/27 03:48:55;;;;;;;8.30;2.63;;;;;;;5.11;59.94;95760.47;4944564;28;20233;-74
2021/04/27 03:51:23;;;;;;;9.00;2.00;;;;;;;4.97;60.31;95737.19;4946431;28;20199;-71
2021/04/27 03:53:50;;;;;;;6.55;2.25;;;;;;;4.99;60.34;95750.81;4942962;28;20294;-72
2021/04/27 03:56:17;;;;;;;5.35;2.92;;;;;;;4.89;60.88;95749.66;4940333;28;20657;-72
2021/04/27 03:58:44;;;;;;;10.18;2.72;;;;;;;4.86;61.63;95749.84;4945754;28;20624;-71
2021/04/27 04:01:11;;;;;;;6.93;2.45;;;;;;;4.79;61.01;95744.16;4942897;28;20194;-71
2021/04/27 04:03:40;;;;;;;9.90;3.35;;;;;;;4.72;61.61;95742.00;4908973;28;20250;-71
2021/04/27 04:06:07;;;;;;;4.03;1.95;;;;;;;4.78;62.20;95757.13;4917087;29;20575;-70
2021/04/27 04:08:35;;;;;;;5.82;2.45;;;;;;;4.80;61.97;95750.97;4911632;29;20231;-71
2021/04/27 04:11:02;;;;;;;3.88;2.58;;;;;;;4.80;61.75;95750.16;4917286;29;20198;-73
2021/04/27 04:13:29;;;;;;;9.75;3.05;;;;;;;4.71;61.54;95730.00;4915313;29;20221;-71
2021/04/27 04:15:56;;;;;;;4.25;2.25;;;;;;;4.72;61.94;95753.13;4913151;29;20191;-73
2021/04/27 04:18:23;;;;;;;6.18;2.70;;;;;;;4.69;61.56;95760.19;4917138;29;20647;-70
2021/04/27 04:20:52;;;;;;;7.45;2.72;;;;;;;4.74;61.26;95747.91;4920117;29;20191;-71
2021/04/27 04:23:19;;;;;;;5.40;2.47;;;;;;;4.75;61.91;95754.72;4922902;29;20199;-71
2021/04/27 04:25:47;;;;;;;5.13;2.30;;;;;;;4.77;61.44;95758.88;4896668;29;20624;-72
2021/04/27 04:28:13;;;;;;;4.93;1.85;;;;;;;4.75;60.98;95750.41;4912495;29;20214;-71
2021/04/27 04:30:45;;;;;;;7.97;2.00;;;;;;;4.70;60.73;95751.53;4912959;28;20663;-74
2021/04/27 04:33:12;;;;;;;3.75;1.77;;;;;;;4.76;60.98;95761.53;4906819;29;20196;-71
2021/04/27 04:35:39;;;;;;;5.20;2.42;;;;;;;4.77;61.66;95752.88;4918964;29;20211;-72
2021/04/27 04:38:07;;;;;;;16.67;2.40;;;;;;;4.79;61.58;95749.31;4916575;29;20673;-73
2021/04/27 04:40:34;;;;;;;5.15;2.80;;;;;;;4.86;61.81;95760.16;4912092;29;20236;-70
2021/04/27 04:43:01;;;;;;;6.30;2.70;;;;;;;4.74;62.07;95756.44;4915874;29;20253;-72
2021/04/27 04:45:29;;;;;;;5.90;3.75;;;;;;;4.74;62.70;95761.59;4907487;29;20223;-73
2021/04/27 04:47:56;;;;;;;10.32;3.00;;;;;;;4.69;62.91;95762.75;4915312;29;20202;-72
2021/04/27 04:50:23;;;;;;;4.95;2.83;;;;;;;4.72;63.02;95754.88;4912082;29;20236;-70
2021/04/27 04:52:50;;;;;;;7.35;2.80;;;;;;;4.68;63.00;95758.53;4916189;29;20192;-71
2021/04/27 04:55:18;;;;;;;6.80;2.72;;;;;;;4.83;62.82;95760.28;4913324;29;20236;-70
2021/04/27 04:57:45;;;;;;;5.40;2.60;;;;;;;4.86;62.49;95752.41;4921992;29;20243;-71
2021/04/27 05:00:15;;;;;;;7.18;2.38;;;;;;;4.97;62.66;95755.25;4911052;29;20872;-72
2021/04/27 05:02:43;;;;;;;10.98;2.28;;;;;;;5.10;62.28;95758.81;4919415;29;20236;-73
2021/04/27 05:05:12;;;;;;;4.20;2.15;;;;;;;5.19;61.77;95759.16;4907391;29;20227;-72
2021/04/27 05:07:43;;;;;;;7.18;2.55;;;;;;;5.32;61.27;95754.97;4911079;29;20935;-71
2021/04/27 05:10:11;;;;;;;8.40;2.42;;;;;;;5.12;62.06;95762.16;4913811;29;20239;-70
2021/04/27 05:12:39;;;;;;;5.55;2.80;;;;;;;5.14;62.51;95761.16;4913571;29;20195;-73
2021/04/27 05:15:10;;;;;;;7.90;2.30;;;;;;;5.17;62.19;95745.50;4910196;29;20227;-72
2021/04/27 05:17:37;;;;;;;7.60;2.20;;;;;;;5.38;61.39;95753.81;4919531;29;20254;-70
2021/04/27 05:20:06;;;;;;;6.10;1.95;;;;;;;5.60;60.74;95765.44;4910963;29;20286;-71
2021/04/27 05:22:33;;;;;;;6.15;1.90;;;;;;;5.72;60.39;95766.50;4914600;29;20638;-72
2021/04/27 05:25:01;;;;;;;2.92;1.75;;;;;;;5.85;60.17;95764.91;4912429;29;20219;-72
2021/04/27 05:27:31;;;;;;;6.00;2.20;;;;;;;5.97;59.94;95761.66;4918213;29;20229;-68
2021/04/27 05:29:59;;;;;;;11.63;2.10;;;;;;;6.01;58.67;95761.38;4921424;29;21029;-71
2021/04/27 05:32:26;;;;;;;11.73;1.80;;;;;;;6.04;58.77;95752.63;4922751;29;20544;-74
2021/04/27 05:34:52;;;;;;;3.20;1.77;;;;;;;6.18;58.71;95743.13;4916151;29;20235;-70
2021/04/27 05:37:19;;;;;;;4.95;2.30;;;;;;;6.32;58.37;95755.22;4921721;29;20197;-71
2021/04/27 05:39:46;;;;;;;5.32;1.98;;;;;;;6.41;57.46;95744.38;4889044;29;20528;-71
2021/04/27 05:42:13;;;;;;;7.30;2.10;;;;;;;6.50;57.60;95738.66;4915578;29;20575;-72
2021/04/27 05:44:41;;;;;;;8.40;2.25;;;;;;;6.38;57.71;95752.28;4918884;29;20299;-72
2021/04/27 05:47:10;;;;;;;5.22;2.30;;;;;;;6.57;57.31;95760.63;4912302;29;20188;-70
2021/04/27 05:49:37;;;;;;;13.70;3.10;;;;;;;6.76;57.33;95762.00;4922675;29;20315;-71
2021/04/27 05:52:05;;;;;;;9.27;2.35;;;;;;;6.99;56.97;95753.69;4882947;29;20196;-71
2021/04/27 05:54:32;;;;;;;11.95;2.28;;;;;;;7.15;56.83;95759.56;4909556;29;20574;-71
2021/04/27 05:57:00;;;;;;;6.60;2.15;;;;;;;7.30;56.04;95758.59;4920040;29;20200;-73
2021/04/27 05:59:27;;;;;;;7.97;3.10;;;;;;;7.46;56.35;95754.16;4906413;29;20236;-72
2021/04/27 06:01:54;;;;;;;5.72;2.35;;;;;;;7.64;55.52;95757.34;4913386;28;20235;-70
2021/04/27 06:04:22;;;;;;;6.22;2.67;;;;;;;7.92;54.45;95757.19;4910209;29;20662;-71
2021/04/27 06:06:49;;;;;;;4.88;2.78;;;;;;;7.80;54.05;95752.81;4919930;29;20203;-70
2021/04/27 06:09:16;;;;;;;5.65;2.88;;;;;;;7.63;54.25;95755.66;4912538;28;20239;-70
2021/04/27 06:11:45;;;;;;;5.22;2.83;;;;;;;7.77;53.94;95755.59;4910835;29;20187;-72
2021/04/27 06:14:12;;;;;;;6.63;2.25;;;;;;;7.87;54.39;95759.28;4914619;29;20734;-70
2021/04/27 06:16:39;;;;;;;5.63;2.58;;;;;;;7.51;54.27;95757.25;4910857;29;20305;-72
2021/04/27 06:19:06;;;;;;;5.43;2.47;;;;;;;7.70;55.05;95757.75;4906262;29;20226;-71
2021/04/27 06:21:34;;;;;;;7.95;4.03;;;;;;;8.03;55.11;95754.75;4910483;29;20192;-70
2021/04/27 06:24:01;;;;;;;4.65;2.35;;;;;;;8.34;54.00;95757.84;4917461;29;20220;-68
2021/04/27 06:26:28;;;;;;;24.65;13.85;;;;;;;8.53;53.07;95750.47;4918952;29;20283;-70
2021/04/27 06:28:55;;;;;;;22.23;5.20;;;;;;;8.73;52.11;95758.59;4916433;29;20630;-70
2021/04/27 06:31:23;;;;;;;37.17;4.40;;;;;;;8.91;52.02;95753.88;4901526;29;20195;-69
2021/04/27 06:33:50;;;;;;;15.10;3.10;;;;;;;8.60;52.24;95752.56;4917219;29;20251;-70
2021/04/27 06:36:17;;;;;;;7.23;2.60;;;;;;;8.32;51.99;95752.75;4916098;29;20213;-74
2021/04/27 06:38:46;;;;;;;20.70;2.83;;;;;;;8.34;53.09;95753.47;4920033;29;20862;-72
2021/04/27 06:41:13;;;;;;;20.03;3.00;;;;;;;8.30;52.64;95747.78;4919131;29;20447;-69
2021/04/27 06:43:41;;;;;;;8.63;2.40;;;;;;;8.43;53.36;95757.22;4916461;29;20812;-70
2021/04/27 06:46:11;;;;;;;11.23;2.78;;;;;;;8.76;52.24;95752.34;4913465;29;20201;-70
2021/04/27 06:48:39;;;;;;;9.27;2.60;;;;;;;9.16;52.19;95752.06;4921162;29;20540;-71
2021/04/27 06:51:08;;;;;;;4.72;2.67;;;;;;;9.50;52.41;95746.16;4917924;29;21202;-70
2021/04/27 06:53:36;;;;;;;3.20;2.17;;;;;;;9.77;52.50;95746.78;4915285;29;20564;-69
2021/04/27 06:56:05;;;;;;;4.70;2.67;;;;;;;10.03;51.95;95737.13;4913038;29;20912;-72
2021/04/27 06:58:32;;;;;;;12.93;3.27;;;;;;;10.28;51.48;95739.56;4917998;29;20517;-70
2021/04/27 07:01:02;;;;;;;3.50;2.13;;;;;;;10.53;50.91;95737.59;4905722;29;20855;-70
2021/04/27 07:03:32;;;;;;;4.93;3.00;;;;;;;10.51;49.88;95721.28;4915166;29;21195;-72
2021/04/27 07:05:59;;;;;;;5.57;2.60;;;;;;;10.71;48.82;95724.97;4917246;29;20590;-71
2021/04/27 07:08:26;;;;;;;8.57;3.77;;;;;;;10.88;48.40;95732.31;4913917;29;21089;-72
2021/04/27 07:10:57;;;;;;;17.40;2.83;;;;;;;11.24;48.49;95722.47;4916628;29;20432;-73
2021/04/27 07:13:25;;;;;;;12.73;2.63;;;;;;;11.61;48.30;95726.47;4921824;29;21247;-73
2021/04/27 07:15:53;;;;;;;14.40;3.73;;;;;;;12.01;47.02;95740.53;4926361;29;20943;-74
2021/04/27 07:18:20;;;;;;;7.03;3.77;;;;;;;12.41;45.72;95723.28;4913278;29;20483;-73
2021/04/27 07:20:48;;;;;;;11.60;3.50;;;;;;;12.80;45.14;95722.56;4912051;29;20549;-73
2021/04/27 07:23:15;;;;;;;15.70;3.93;;;;;;;12.43;43.96;95734.41;4919186;29;20815;-74
2021/04/27 07:25:43;;;;;;;14.30;3.90;;;;;;;12.41;45.52;95733.72;4915688;29;20444;-73
2021/04/27 07:28:12;;;;;;;8.47;3.57;;;;;;;12.04;45.29;95742.91;4917729;29;20505;-72
2021/04/27 07:30:40;;;;;;;10.70;3.57;;;;;;;11.89;45.37;95733.72;4919268;29;20451;-73
2021/04/27 07:33:08;;;;;;;9.70;3.00;;;;;;;12.11;46.17;95736.25;4914529;29;20434;-73
2021/04/27 07:35:35;;;;;;;30.97;5.20;;;;;;;12.51;45.21;95739.81;4912409;29;20469;-75
2021/04/27 07:38:04;;;;;;;18.63;4.77;;;;;;;13.10;44.83;95738.25;4921561;29;20442;-73
2021/04/27 07:40:33;;;;;;;12.93;3.53;;;;;;;13.24;44.18;95730.06;4919355;29;20483;-73
2021/04/27 07:43:01;;;;;;;15.33;3.87;;;;;;;12.90;43.93;95728.66;4918139;29;20855;-73
2021/04/27 07:45:31;;;;;;;6.50;3.27;;;;;;;11.93;45.25;95737.72;4910315;29;20855;-73
2021/04/27 07:47:59;;;;;;;7.50;3.93;;;;;;;11.66;46.11;95739.13;4916622;29;20495;-73
2021/04/27 07:50:27;;;;;;;13.10;4.20;;;;;;;11.62;46.34;95738.53;4922893;29;20482;-72
2021/04/27 07:52:54;;;;;;;12.67;4.10;;;;;;;11.21;47.42;95737.53;4919219;29;20436;-73
2021/04/27 07:55:22;;;;;;;17.20;3.47;;;;;;;11.71;49.36;95735.19;4925714;29;20490;-73
2021/04/27 07:57:49;;;;;;;5.40;3.07;;;;;;;12.17;48.82;95734.91;4920184;29;20939;-73
2021/04/27 08:00:17;;;;;;;98.53;40.93;;;;;;;12.75;49.24;95727.34;4922615;29;20467;-72
2021/04/27 08:02:45;;;;;;;12.50;4.57;;;;;;;13.28;48.01;95736.69;4921885;29;20820;-73
2021/04/27 08:05:14;;;;;;;6.97;3.13;;;;;;;13.73;46.77;95730.88;4929932;28;20471;-73
2021/04/27 08:07:41;;;;;;;11.30;4.13;;;;;;;14.00;45.68;95725.00;4911054;29;20520;-74
2021/04/27 08:10:32;;;;;;;76.07;8.10;;;;;;;14.02;45.54;95736.16;4926724;29;20950;-74
2021/04/27 08:13:00;;;;;;;14.30;3.90;;;;;;;14.18;45.47;95728.63;4926284;29;20478;-71
2021/04/27 08:15:29;;;;;;;5.53;3.30;;;;;;;14.47;44.75;95739.91;4923189;29;20980;-74
2021/04/27 08:17:59;;;;;;;11.00;4.13;;;;;;;14.49;45.46;95737.97;4928026;29;20494;-73
2021/04/27 08:20:28;;;;;;;14.93;3.80;;;;;;;14.78;44.61;95738.75;4925990;28;20958;-75
2021/04/27 08:22:55;;;;;;;12.63;5.10;;;;;;;14.70;44.05;95728.16;4922001;29;20473;-74
2021/04/27 08:25:22;;;;;;;11.00;4.30;;;;;;;14.76;44.05;95724.97;4920763;29;21084;-74
2021/04/27 08:27:50;;;;;;;9.07;4.20;;;;;;;14.76;43.51;95731.06;4920498;29;21017;-74
2021/04/27 08:30:20;;;;;;;11.93;4.27;;;;;;;14.29;44.29;95723.25;4929038;29;21000;-71
2021/04/27 08:32:48;;;;;;;13.20;4.87;;;;;;;14.37;45.51;95720.78;4925422;29;20440;-71
2021/04/27 08:35:16;;;;;;;12.40;3.70;;;;;;;13.64;44.01;95729.06;4925641;29;20972;-71
2021/04/27 08:37:44;;;;;;;8.13;3.90;;;;;;;13.78;45.51;95730.50;4920480;29;20478;-69
2021/04/27 08:40:13;;;;;;;8.50;4.47;;;;;;;14.43;44.26;95733.28;4926783;29;20479;-70
2021/04/27 08:42:41;;;;;;;18.23;5.70;;;;;;;14.93;43.52;95721.59;4932333;29;20880;-71
2021/04/27 08:45:10;;;;;;;19.97;4.40;;;;;;;14.57;42.27;95719.75;4908845;29;20478;-70
2021/04/27 08:47:38;;;;;;;11.30;4.40;;;;;;;14.31;43.13;95713.47;4930316;29;20863;-71
2021/04/27 08:50:10;;;;;;;11.37;4.00;;;;;;;14.54;42.87;95720.06;4927909;29;20459;-71
2021/04/27 08:52:38;;;;;;;18.93;4.53;;;;;;;14.93;44.25;95718.97;4920340;29;21004;-71
2021/04/27 08:55:07;;;;;;;34.83;4.70;;;;;;;14.68;44.42;95701.28;4917816;29;20467;-70
2021/04/27 08:57:35;;;;;;;14.10;4.03;;;;;;;14.78;42.72;95707.31;4922809;29;20768;-71
2021/04/27 09:00:05;;;;;;;11.27;3.83;;;;;;;14.45;42.21;95715.66;4924858;29;20554;-72
2021/04/27 09:02:32;;;;;;;12.27;5.27;;;;;;;14.37;43.43;95710.28;4919450;28;20579;-71
2021/04/27 09:04:59;;;;;;;11.63;4.30;;;;;;;14.14;43.33;95704.47;4924510;28;20949;-70
2021/04/27 09:07:29;;;;;;;11.70;4.60;;;;;;;13.93;43.49;95713.44;4922490;29;20490;-70
2021/04/27 09:09:59;;;;;;;13.13;4.90;;;;;;;14.54;43.77;95710.41;4923161;29;20459;-71
2021/04/27 09:12:28;;;;;;;22.23;4.37;;;;;;;15.25;43.06;95706.31;4925765;29;20748;-71
2021/04/27 09:14:56;;;;;;;9.50;4.43;;;;;;;15.58;41.87;95705.75;4919456;28;20942;-72
2021/04/27 09:17:25;;;;;;;9.70;4.10;;;;;;;16.14;41.20;95701.09;4920333;28;20474;-72
2021/04/27 09:19:53;;;;;;;7.97;4.40;;;;;;;16.08;41.92;95691.19;4925277;28;20468;-69
2021/04/27 09:22:22;;;;;;;134.70;11.90;;;;;;;16.56;42.88;95686.38;4907976;29;20449;-71
2021/04/27 09:24:51;;;;;;;11.87;5.20;;;;;;;17.12;42.25;95694.59;4922120;28;21075;-71
2021/04/27 09:27:30;;;;;;;12.37;5.03;;;;;;;17.43;41.07;95693.97;4932824;29;20767;-70
2021/04/27 09:29:59;;;;;;;10.13;4.53;;;;;;;17.80;40.07;95690.00;4922474;29;20818;-70
2021/04/27 09:32:34;;;;;;;93.47;49.27;;;;;;;17.86;40.23;95686.72;4901311;29;20829;-71
2021/04/27 09:35:32;;;;;;;11.80;5.00;;;;;;;17.59;40.45;95683.50;4918428;28;20732;-71
2021/04/27 09:38:21;;;;;;;37.43;5.33;;;;;;;17.88;40.09;95683.91;4922943;29;20447;-71
2021/04/27 09:40:55;;;;;;;21.77;6.63;;;;;;;17.93;40.25;95671.09;4922447;29;20474;-74
2021/04/27 09:43:25;;;;;;;76.60;10.60;;;;;;;17.80;40.39;95682.09;4925575;28;20474;-70
2021/04/27 09:45:55;;;;;;;12.40;5.13;;;;;;;18.03;39.50;95677.84;4921975;29;20458;-73
2021/04/27 09:48:34;;;;;;;11.60;5.80;;;;;;;18.33;39.28;95669.34;4925235;29;20486;-69
2021/04/27 09:51:27;;;;;;;13.80;4.80;;;;;;;18.85;38.75;95665.34;4930600;29;20771;-70
2021/04/27 09:54:05;;;;;;;10.77;5.27;;;;;;;19.18;37.65;95661.63;4915893;29;20959;-71
2021/04/27 09:56:38;;;;;;;20.90;6.03;;;;;;;19.26;37.06;95653.72;4929771;29;20463;-71
2021/04/27 09:59:09;;;;;;;17.93;5.57;;;;;;;19.45;36.78;95650.66;4926846;28;20810;-69
2021/04/27 10:01:37;;;;;;;10.60;5.63;;;;;;;19.44;36.75;95656.94;4922240;29;20474;-69
2021/04/27 10:04:05;;;;;;;14.83;6.10;;;;;;;19.63;36.27;95661.81;4918976;29;20554;-72
2021/04/27 10:06:32;;;;;;;20.30;5.23;;;;;;;19.76;36.56;95651.47;4931175;29;20624;-72
2021/04/27 10:08:59;;;;;;;11.83;5.13;;;;;;;19.94;36.95;95654.69;4931631;29;20478;-72
2021/04/27 10:11:28;;;;;;;7.50;4.73;;;;;;;20.14;36.42;95642.69;4933547;29;20782;-73
2021/04/27 10:13:56;;;;;;;13.47;5.87;;;;;;;20.06;36.13;95648.03;4925283;29;20478;-71
2021/04/27 10:16:24;;;;;;;14.23;5.47;;;;;;;19.79;36.29;95630.03;4926987;29;20790;-71
2021/04/27 10:18:57;;;;;;;19.83;5.80;;;;;;;20.13;36.11;95648.16;4925083;28;20879;-70
2021/04/27 10:21:24;;;;;;;9.53;5.70;;;;;;;20.07;35.70;95644.41;4936749;29;20433;-71
2021/04/27 10:23:53;;;;;;;24.73;6.33;;;;;;;20.34;35.77;95638.56;4931394;28;20466;-71
2021/04/27 10:26:21;;;;;;;13.50;5.63;;;;;;;20.32;35.38;95635.28;4922305;29;21155;-71
2021/04/27 10:29:05;;;;;;;13.53;5.67;;;;;;;20.67;34.59;95625.88;4918487;28;20954;-71
2021/04/27 10:31:35;;;;;;;11.50;5.87;;;;;;;19.36;34.59;95632.38;4923039;29;20457;-71
2021/04/27 10:34:06;;;;;;;17.27;6.13;;;;;;;17.16;36.68;95628.38;4921457;29;20465;-71
2021/04/27 10:36:36;;;;;;;23.50;7.03;;;;;;;16.08;39.15;95628.19;4930380;29;20450;-73
2021/04/27 10:39:05;;;;;;;11.73;6.77;;;;;;;17.78;38.49;95630.56;4929433;28;20459;-73
2021/04/27 10:41:45;;;;;;;16.73;7.13;;;;;;;18.15;34.23;95618.56;4918156;29;20807;-74
2021/04/27 10:44:14;;;;;;;178.43;91.37;;;;;;;17.86;37.08;95623.53;4917286;28;20859;-74
2021/04/27 10:46:48;;;;;;;24.00;6.13;;;;;;;17.75;35.45;95610.66;4922925;29;20812;-72
2021/04/27 10:49:35;;;;;;;15.30;5.93;;;;;;;19.13;35.34;95608.53;4918232;29;20957;-72
2021/04/27 10:52:05;;;;;;;14.50;5.83;;;;;;;20.03;35.94;95598.13;4919425;29;20542;-72
2021/04/27 10:54:35;;;;;;;11.10;5.80;;;;;;;20.52;35.13;95580.91;4923528;28;21029;-74
2021/04/27 10:57:22;;;;;;;15.60;5.73;;;;;;;21.00;32.59;95601.56;4922628;29;20467;-75
2021/04/27 10:59:53;;;;;;;23.63;7.00;;;;;;;19.78;31.93;95588.75;4922994;29;20471;-73
2021/04/27 11:02:24;;;;;;;14.43;7.07;;;;;;;19.55;34.76;95573.88;4923965;29;20847;-72
2021/04/27 11:04:54;;;;;;;30.33;6.50;;;;;;;19.98;34.21;95581.19;4924035;28;20465;-73
2021/04/27 11:07:33;;;;;;;20.80;7.23;;;;;;;19.75;34.97;95586.44;4919639;29;20886;-74
2021/04/27 11:10:24;;;;;;;14.60;6.93;;;;;;;20.47;35.61;95591.19;4925655;29;20475;-74
2021/04/27 11:13:05;;;;;;;10.83;6.03;;;;;;;20.15;32.67;95586.19;4924847;29;20830;-73
2021/04/27 11:15:34;;;;;;;17.57;6.93;;;;;;;20.24;32.60;95582.47;4923772;29;20977;-74
2021/04/27 11:18:13;;;;;;;12.20;5.90;;;;;;;21.30;32.02;95584.69;4914549;29;20937;-74
2021/04/27 11:21:12;;;;;;;13.93;6.83;;;;;;;21.26;33.52;95575.47;4929714;29;20789;-74
2021/04/27 11:23:48;;;;;;;16.73;5.37;;;;;;;22.03;34.16;95577.38;4923594;28;20475;-75
2021/04/27 11:26:51;;;;;;;14.63;7.30;;;;;;;21.78;33.13;95576.09;4921934;29;20980;-74
2021/04/27 11:29:21;;;;;;;15.53;7.77;;;;;;;22.32;32.71;95569.25;4920044;29;20467;-74
2021/04/27 11:31:55;;;;;;;21.33;7.00;;;;;;;22.23;33.54;95575.72;4917502;29;20451;-75
2021/04/27 11:34:24;;;;;;;13.87;6.80;;;;;;;21.43;31.38;95574.22;4917109;28;20495;-72
2021/04/27 11:36:51;;;;;;;9.40;6.70;;;;;;;20.60;31.89;95567.59;4923289;29;21199;-73
2021/04/27 11:39:20;;;;;;;17.70;7.70;;;;;;;20.34;34.38;95571.66;4926508;28;20455;-74
2021/04/27 11:41:52;;;;;;;15.00;6.83;;;;;;;21.41;34.14;95557.72;4921599;29;20454;-74
2021/04/27 11:44:21;;;;;;;35.70;7.83;;;;;;;22.23;32.60;95564.28;4924437;28;21007;-74